International Virtual Aviation Organisation

Russian Federation and Kazakhstan MCD

 
UACP 231130Z 21009MPS 9999 SCT033CB M02/M05 Q0993 R23/3/0528 NOSIG RMK QFE732/0977
QNH:(hPa/inHg/mmHg)993 / 29.32 / 745
QFE:(hPa/inHg/mmHg)976 / 28.82 / 732
Temperature-2
Dew Point-5
Visibility> 10000
Weather
Cloud CoverSCT (3300);
Transition Height10000 m./33300 ft.
Transition LevelFL350
SQUAWK